createdAt,value
2022-10-04T00:04:37.855Z,1.45
2022-10-04T00:09:46.767Z,2.00
2022-10-04T00:14:55.694Z,3.65
2022-10-04T00:20:01.418Z,1.67
2022-10-04T00:25:24.479Z,2.72
2022-10-04T00:30:39.492Z,2.15
2022-10-04T00:35:52.770Z,1.95
2022-10-04T00:41:02.150Z,4.25
2022-10-04T00:46:14.684Z,2.03
2022-10-04T00:51:26.642Z,1.90
2022-10-04T00:56:38.634Z,2.33
2022-10-04T01:01:48.262Z,6.53
2022-10-04T01:06:53.427Z,2.07
2022-10-04T01:12:03.438Z,1.52
2022-10-04T01:17:11.390Z,4.38
2022-10-04T01:22:37.053Z,1.95
2022-10-04T01:27:45.529Z,3.78
2022-10-04T01:32:50.734Z,1.58
2022-10-04T01:37:58.834Z,2.92
2022-10-04T01:43:05.853Z,5.22
2022-10-04T01:48:14.606Z,2.80
2022-10-04T01:53:26.271Z,2.50
2022-10-04T01:58:33.690Z,3.47
2022-10-04T02:03:40.280Z,3.38
2022-10-04T02:08:57.787Z,1.73
2022-10-04T02:14:03.770Z,2.00
2022-10-04T02:19:11.910Z,1.63
2022-10-04T02:24:19.963Z,4.15
2022-10-04T02:29:25.110Z,2.58
2022-10-04T02:34:30.442Z,2.47
2022-10-04T02:39:41.214Z,2.50
2022-10-04T02:44:48.778Z,2.08
2022-10-04T02:49:56.390Z,5.55
2022-10-04T02:55:06.921Z,2.88
2022-10-04T03:00:20.771Z,2.35
2022-10-04T03:05:25.838Z,2.15
2022-10-04T03:10:35.248Z,2.08
2022-10-04T03:15:41.346Z,4.13
2022-10-04T03:20:46.657Z,2.38
2022-10-04T03:25:56.816Z,1.55
2022-10-04T03:31:02.142Z,2.40
2022-10-04T03:36:07.422Z,4.55
2022-10-04T03:41:16.101Z,3.30
2022-10-04T03:46:23.425Z,3.20
2022-10-04T03:51:30.341Z,2.20
2022-10-04T03:56:38.934Z,3.58
2022-10-04T04:01:46.937Z,3.35
2022-10-04T04:06:57.219Z,3.67
2022-10-04T04:17:33.914Z,3.22
2022-10-04T04:22:41.955Z,4.60
2022-10-04T04:27:50.670Z,3.35
2022-10-04T04:32:58.306Z,2.75
2022-10-04T04:38:09.175Z,8.20
2022-10-04T04:43:21.941Z,4.50
2022-10-04T04:48:27.322Z,2.60
2022-10-04T04:53:33.514Z,4.72
2022-10-04T04:58:46.323Z,4.95
2022-10-04T05:04:03.799Z,4.72
2022-10-04T05:09:09.755Z,5.22
2022-10-04T05:14:19.820Z,3.97
2022-10-04T05:19:28.119Z,4.28
2022-10-04T05:24:35.161Z,5.90
2022-10-04T05:30:00.807Z,5.68
2022-10-04T05:35:05.966Z,3.10
2022-10-04T05:40:26.138Z,3.10
2022-10-04T05:45:34.786Z,3.97
2022-10-04T05:50:42.674Z,6.57
2022-10-04T05:55:54.323Z,8.90
2022-10-04T06:01:19.695Z,9.98
2022-10-04T06:06:29.323Z,4.72
2022-10-04T06:11:42.636Z,5.85
2022-10-04T06:17:01.003Z,3.90
2022-10-04T06:22:19.499Z,3.15
2022-10-04T06:27:30.658Z,3.10
2022-10-04T06:32:59.993Z,7.13
2022-10-04T06:38:20.923Z,5.07
2022-10-04T06:43:42.902Z,6.00
2022-10-04T06:49:17.563Z,12.57
2022-10-04T06:54:34.993Z,3.05
2022-10-04T07:00:03.342Z,3.35
2022-10-04T07:05:18.893Z,1.88
2022-10-04T07:10:34.493Z,4.25
2022-10-04T07:15:47.061Z,2.67
2022-10-04T07:20:57.648Z,4.10
2022-10-04T07:26:05.791Z,2.97
2022-10-04T07:31:16.606Z,5.05
2022-10-04T07:36:26.245Z,5.90
2022-10-04T07:41:35.662Z,2.15
2022-10-04T07:46:53.279Z,5.90
2022-10-04T07:52:27.928Z,3.80
2022-10-04T07:57:42.026Z,3.63
2022-10-04T08:02:56.748Z,1.55
2022-10-04T08:08:22.950Z,2.92
2022-10-04T08:13:40.008Z,3.28
2022-10-04T08:18:53.354Z,3.08
2022-10-04T08:24:06.948Z,1.90
2022-10-04T08:29:39.882Z,2.28
2022-10-04T08:35:01.997Z,3.85
2022-10-04T08:40:37.004Z,4.30
2022-10-04T08:46:23.539Z,3.28
2022-10-04T08:52:07.815Z,2.00
2022-10-04T08:57:26.370Z,2.95
2022-10-04T09:03:01.552Z,5.25
2022-10-04T09:08:38.339Z,3.88
2022-10-04T09:13:52.030Z,2.80
2022-10-04T09:19:22.863Z,6.00
2022-10-04T09:25:00.886Z,3.53
2022-10-04T09:30:15.141Z,2.40
2022-10-04T09:35:53.923Z,3.97
2022-10-04T09:41:24.112Z,2.85
2022-10-04T09:57:39.434Z,3.10
2022-10-04T10:02:56.613Z,2.00
2022-10-04T10:08:12.642Z,5.32
2022-10-04T10:13:43.461Z,2.17
2022-10-04T10:18:59.471Z,2.17
2022-10-04T10:24:30.430Z,3.60
2022-10-04T10:29:52.097Z,4.15
2022-10-04T10:35:18.940Z,3.97
2022-10-04T10:40:39.459Z,2.25
2022-10-04T10:45:56.707Z,1.75
2022-10-04T10:51:12.952Z,2.97
2022-10-04T10:56:44.153Z,3.00
2022-10-04T11:02:10.488Z,2.28
2022-10-04T11:07:43.834Z,3.03
2022-10-04T11:13:21.883Z,2.47
2022-10-04T11:18:52.771Z,2.60
2022-10-04T11:24:21.265Z,3.42
2022-10-04T11:29:50.982Z,4.13
2022-10-04T11:35:28.811Z,3.15
2022-10-04T11:40:42.676Z,1.60
2022-10-04T11:46:14.558Z,2.30
2022-10-04T11:51:53.176Z,1.77
2022-10-04T11:57:20.852Z,2.67
2022-10-04T12:02:53.657Z,3.45
2022-10-04T12:08:14.027Z,2.28
2022-10-04T12:13:38.484Z,1.48
2022-10-04T12:19:15.693Z,2.30
2022-10-04T12:24:49.764Z,3.65
2022-10-04T12:30:24.139Z,1.60
2022-10-04T12:35:34.931Z,1.70
2022-10-04T12:40:46.674Z,2.05
2022-10-04T12:45:59.563Z,2.83
2022-10-04T12:51:14.856Z,2.67
2022-10-04T12:56:37.022Z,2.55
2022-10-04T13:01:50.900Z,3.72
2022-10-04T13:07:04.481Z,3.25
2022-10-04T13:12:30.590Z,1.95
2022-10-04T13:17:44.736Z,1.48
2022-10-04T13:22:57.620Z,2.38
2022-10-04T13:28:09.802Z,3.95
2022-10-04T13:33:26.491Z,1.40
2022-10-04T13:38:51.956Z,6.18
2022-10-04T13:44:33.465Z,3.80
2022-10-04T13:49:54.828Z,1.50
2022-10-04T13:55:22.923Z,6.05
2022-10-04T14:00:45.149Z,1.63
2022-10-04T14:06:19.853Z,6.60
2022-10-04T14:12:00.593Z,5.90
2022-10-04T14:17:42.659Z,3.63
2022-10-04T14:23:10.717Z,3.47
2022-10-04T14:28:40.329Z,3.55
2022-10-04T14:34:06.463Z,3.83
2022-10-04T14:39:44.027Z,5.38
2022-10-04T14:45:04.451Z,1.65
2022-10-04T14:50:26.510Z,2.90
2022-10-04T14:55:49.795Z,1.63
2022-10-04T15:01:18.702Z,1.65
2022-10-04T15:06:49.046Z,2.58
2022-10-04T15:12:25.520Z,2.03
2022-10-04T15:17:29.817Z,2.97
2022-10-04T15:22:44.221Z,3.38
2022-10-04T15:27:53.733Z,4.68
2022-10-04T15:33:12.300Z,6.95
2022-10-04T15:38:27.820Z,4.05
2022-10-04T15:43:37.346Z,2.97
2022-10-04T15:49:05.659Z,4.68
2022-10-04T15:54:39.455Z,8.70
2022-10-04T15:59:53.714Z,8.57
2022-10-04T16:05:13.249Z,7.03
2022-10-04T16:10:27.674Z,6.63
2022-10-04T16:15:35.650Z,6.13
2022-10-04T16:20:56.454Z,5.75
2022-10-04T16:26:06.371Z,7.43
2022-10-04T16:36:49.718Z,8.85
2022-10-04T16:42:03.497Z,5.15
2022-10-04T16:47:22.423Z,4.55
2022-10-04T16:52:48.520Z,3.95
2022-10-04T16:58:23.456Z,5.28
2022-10-04T17:03:34.062Z,5.72
2022-10-04T17:09:03.913Z,4.60
2022-10-04T17:14:32.809Z,6.80
2022-10-04T17:19:47.087Z,21.35
2022-10-04T17:25:02.518Z,8.73
2022-10-04T17:30:18.455Z,8.07
2022-10-04T17:36:03.811Z,10.88
2022-10-04T17:41:18.155Z,11.90
2022-10-04T17:46:26.673Z,8.50
2022-10-04T17:51:56.687Z,7.60
2022-10-04T17:57:14.675Z,9.50
2022-10-04T18:02:23.820Z,6.47
2022-10-04T18:07:36.250Z,7.20
2022-10-04T18:12:49.069Z,7.38
2022-10-04T18:17:54.525Z,7.25
2022-10-04T18:23:04.281Z,10.75
2022-10-04T18:28:16.320Z,7.82
2022-10-04T18:33:26.639Z,7.57
2022-10-04T18:38:36.375Z,13.07
2022-10-04T18:43:45.524Z,9.43
2022-10-04T18:48:57.180Z,8.65
2022-10-04T18:54:21.923Z,8.38
2022-10-04T18:59:49.089Z,8.40
2022-10-04T19:05:02.333Z,8.13
2022-10-04T19:10:17.158Z,7.18
2022-10-04T19:15:46.371Z,11.30
2022-10-04T19:20:55.807Z,5.88
2022-10-04T19:31:38.100Z,7.63
2022-10-04T19:36:50.871Z,8.35
2022-10-04T19:42:03.116Z,14.48
2022-10-04T19:47:17.643Z,9.15
2022-10-04T19:52:27.193Z,6.07
2022-10-04T19:57:40.073Z,13.18
2022-10-04T20:02:48.960Z,9.40
2022-10-04T20:07:55.955Z,10.20
2022-10-04T20:13:27.898Z,9.68
2022-10-04T20:19:01.632Z,11.93
2022-10-04T20:24:07.081Z,13.13
2022-10-04T20:30:14.857Z,8.95
2022-10-04T20:36:15.510Z,8.18
2022-10-04T20:42:00.164Z,8.63
2022-10-04T20:47:08.069Z,10.55
2022-10-04T20:52:16.225Z,8.77
2022-10-04T20:57:24.036Z,9.15
2022-10-04T21:02:32.238Z,8.05
2022-10-04T21:07:37.396Z,11.20
2022-10-04T21:12:42.541Z,6.85
2022-10-04T21:18:03.072Z,15.10
2022-10-04T21:28:35.010Z,8.48
2022-10-04T21:33:42.733Z,9.20
2022-10-04T21:38:47.874Z,11.32
2022-10-04T21:43:52.972Z,9.05
2022-10-04T21:49:00.730Z,8.80
2022-10-04T21:54:05.872Z,9.18
2022-10-04T21:59:11.111Z,17.63
2022-10-04T22:04:19.062Z,10.32
2022-10-04T22:09:24.498Z,10.52
2022-10-04T22:14:29.539Z,9.85
2022-10-04T22:19:37.390Z,10.13
2022-10-04T22:24:42.495Z,11.48
2022-10-04T22:29:47.731Z,11.48
2022-10-04T22:34:55.795Z,10.93
2022-10-04T22:40:00.999Z,10.25
2022-10-04T22:45:06.274Z,12.90
2022-10-04T22:50:24.932Z,11.68
2022-10-04T22:55:29.944Z,11.07
2022-10-04T23:00:35.139Z,13.25
2022-10-04T23:05:43.366Z,9.82
2022-10-04T23:10:48.726Z,11.15
2022-10-04T23:15:54.389Z,11.20
2022-10-04T23:21:03.648Z,11.23
2022-10-04T23:26:16.276Z,8.23
2022-10-04T23:31:26.327Z,8.57
2022-10-04T23:36:34.205Z,9.98
2022-10-04T23:41:39.342Z,10.05
2022-10-04T23:46:44.864Z,12.65
2022-10-04T23:51:58.375Z,12.35
2022-10-04T23:57:03.520Z,7.88
